Time;durP1;ratioP1;P1;durP2;ratioP2;P2;SDS_P1;SDS_P2;PMS_P1;PMS_P2;Temp;Humidity;BMP_temperature;BMP_pressure;BME280_temperature;BME280_humidity;BME280_pressure;Samples;Min_cycle;Max_cycle;Signal;HPM_P1;HPM_P2
2021/06/15 00:00:15;;;;;;;1999.90;999.90;;;18.90;99.90;;;;;;5074155;28;20205;-79
2021/06/15 00:02:41;;;;;;;1999.90;999.90;;;18.80;99.90;;;;;;5074115;28;20193;-80
2021/06/15 00:05:09;;;;;;;1999.90;999.90;;;18.80;99.90;;;;;;5075669;28;20188;-79
2021/06/15 00:07:35;;;;;;;1999.90;999.90;;;18.70;99.90;;;;;;5095771;22;20229;-78
2021/06/15 00:10:01;;;;;;;1999.90;999.90;;;18.70;99.90;;;;;;5059086;28;20169;-79
2021/06/15 00:12:27;;;;;;;1999.90;999.90;;;18.60;99.90;;;;;;5074025;28;20675;-78
2021/06/15 00:14:53;;;;;;;1999.90;999.90;;;18.50;99.90;;;;;;5078977;28;20565;-78
2021/06/15 00:17:18;;;;;;;1999.90;999.90;;;18.40;99.90;;;;;;5058391;28;20293;-79
2021/06/15 00:19:44;;;;;;;1999.90;999.90;;;18.40;99.90;;;;;;5070192;28;20254;-77
2021/06/15 00:22:09;;;;;;;1999.90;999.90;;;18.40;99.90;;;;;;5061944;28;20177;-78
2021/06/15 00:24:35;;;;;;;1999.90;999.90;;;18.30;99.90;;;;;;5080895;28;20181;-78
2021/06/15 00:27:01;;;;;;;1999.90;999.90;;;18.30;99.90;;;;;;5080383;28;20206;-78
2021/06/15 00:29:26;;;;;;;1999.90;999.90;;;18.20;99.90;;;;;;5076563;28;20174;-78
2021/06/15 00:31:52;;;;;;;1999.90;999.90;;;18.20;99.90;;;;;;5078583;28;20181;-78
2021/06/15 00:34:17;;;;;;;1999.90;999.90;;;18.20;99.90;;;;;;5061768;28;20666;-78
2021/06/15 00:36:43;;;;;;;1999.90;999.90;;;18.10;99.90;;;;;;5078641;28;20300;-78
2021/06/15 00:39:09;;;;;;;1999.90;999.90;;;18.10;99.90;;;;;;5061332;28;20187;-78
2021/06/15 00:41:34;;;;;;;1999.90;999.90;;;18.00;99.90;;;;;;5061351;28;20181;-78
2021/06/15 00:44:00;;;;;;;1999.90;999.90;;;18.10;99.90;;;;;;5061977;28;20581;-79
2021/06/15 00:46:25;;;;;;;1999.90;999.90;;;18.00;99.90;;;;;;5078980;28;20196;-78
2021/06/15 00:48:51;;;;;;;1999.90;999.90;;;17.90;99.90;;;;;;5078575;28;20676;-79
2021/06/15 00:51:17;;;;;;;1999.90;999.90;;;17.80;99.90;;;;;;5079122;28;20640;-79
2021/06/15 00:53:43;;;;;;;1999.90;999.90;;;17.80;99.90;;;;;;5060937;28;20193;-79
2021/06/15 00:56:08;;;;;;;1999.90;999.90;;;17.90;99.90;;;;;;5066977;28;20323;-78
2021/06/15 00:58:34;;;;;;;1999.90;999.90;;;17.90;99.90;;;;;;5073610;28;20176;-78
2021/06/15 01:01:00;;;;;;;1999.90;999.90;;;17.90;99.90;;;;;;5079303;28;20203;-78
2021/06/15 01:03:28;;;;;;;1999.90;999.90;;;17.90;99.90;;;;;;5080057;28;20203;-78
2021/06/15 01:05:55;;;;;;;1999.90;999.90;;;17.80;99.90;;;;;;5077024;28;20234;-78
2021/06/15 01:08:39;;;;;;;1999.90;999.90;;;17.80;99.90;;;;;;5069503;28;20208;-78
2021/06/15 01:11:50;;;;;;;1999.90;999.90;;;17.70;99.90;;;;;;5078855;28;20203;-78
2021/06/15 01:14:47;;;;;;;1999.90;999.90;;;17.60;99.90;;;;;;5078078;28;20173;-78
2021/06/15 01:17:22;;;;;;;1999.90;999.90;;;17.70;99.90;;;;;;5079498;28;20621;-77
2021/06/15 01:20:26;;;;;;;1999.90;999.90;;;17.70;99.90;;;;;;5061156;28;20218;-78
2021/06/15 01:23:09;;;;;;;1999.90;999.90;;;17.60;99.90;;;;;;5060565;28;20243;-78
2021/06/15 01:25:59;;;;;;;1999.90;999.90;;;17.60;99.90;;;;;;5078376;28;20180;-78
2021/06/15 01:28:35;;;;;;;1999.90;999.90;;;17.50;99.90;;;;;;5060596;28;20205;-78
2021/06/15 01:31:08;;;;;;;1999.90;999.90;;;17.50;99.90;;;;;;5059806;28;20183;-77
2021/06/15 01:33:47;;;;;;;1999.90;999.90;;;17.40;99.90;;;;;;5078393;28;20188;-78
2021/06/15 01:36:16;;;;;;;1999.90;999.90;;;17.40;99.90;;;;;;5080390;28;20212;-78
2021/06/15 01:38:53;;;;;;;1999.90;999.90;;;17.50;99.90;;;;;;5080029;28;20207;-78
2021/06/15 01:41:28;;;;;;;1999.90;999.90;;;17.40;99.90;;;;;;5079380;28;20176;-79
2021/06/15 01:43:57;;;;;;;1999.90;999.90;;;17.30;99.90;;;;;;5052917;28;20208;-79
2021/06/15 01:46:26;;;;;;;1999.90;999.90;;;17.30;99.90;;;;;;5037169;28;20267;-78
2021/06/15 01:49:02;;;;;;;1999.90;999.90;;;17.20;99.90;;;;;;5064411;28;20185;-79
2021/06/15 01:51:29;;;;;;;1999.90;999.90;;;17.20;99.90;;;;;;5076106;28;20264;-78
2021/06/15 01:54:10;;;;;;;1999.90;999.90;;;17.10;99.90;;;;;;5077379;28;20240;-78
2021/06/15 01:56:39;;;;;;;1999.90;999.90;;;17.00;99.90;;;;;;5077627;28;20568;-78
2021/06/15 01:59:07;;;;;;;1999.90;999.90;;;17.00;99.90;;;;;;5059864;28;20210;-78
2021/06/15 02:01:42;;;;;;;1999.90;999.90;;;17.00;99.90;;;;;;5074700;28;20557;-79
2021/06/15 02:04:08;;;;;;;1999.90;999.90;;;17.00;99.90;;;;;;5058755;28;20184;-78
2021/06/15 02:06:36;;;;;;;1999.90;999.90;;;16.90;99.90;;;;;;5053069;28;20215;-78
2021/06/15 02:09:05;;;;;;;1999.90;999.90;;;17.00;99.90;;;;;;5049593;28;20177;-77
2021/06/15 02:11:32;;;;;;;1999.90;999.90;;;17.00;99.90;;;;;;5039313;28;20204;-79
2021/06/15 02:14:07;;;;;;;1999.90;999.90;;;17.00;99.90;;;;;;5040333;28;20207;-78
2021/06/15 02:16:34;;;;;;;1999.90;999.90;;;17.00;99.90;;;;;;5037806;28;20332;-78
2021/06/15 02:19:01;;;;;;;1999.90;999.90;;;17.00;99.90;;;;;;5046541;28;20181;-79
2021/06/15 02:21:30;;;;;;;1999.90;999.90;;;17.00;99.90;;;;;;5051407;28;20228;-78
2021/06/15 02:23:58;;;;;;;1999.90;999.90;;;17.00;99.90;;;;;;5043394;28;20617;-78
2021/06/15 02:26:25;;;;;;;1999.90;999.90;;;17.00;99.90;;;;;;5043948;28;20276;-79
2021/06/15 02:28:51;;;;;;;1999.90;999.90;;;17.00;99.90;;;;;;5040451;28;20193;-79
2021/06/15 02:31:25;;;;;;;1999.90;999.90;;;16.80;99.90;;;;;;5050180;28;20263;-77
2021/06/15 02:33:54;;;;;;;1999.90;999.90;;;16.80;99.90;;;;;;5059581;28;20192;-78
2021/06/15 02:36:27;;;;;;;1999.90;999.90;;;16.80;99.90;;;;;;5077782;28;20216;-78
2021/06/15 02:38:56;;;;;;;1999.90;999.90;;;16.80;99.90;;;;;;5077291;28;20216;-77
2021/06/15 02:41:23;;;;;;;1999.90;999.90;;;16.70;99.90;;;;;;5059502;28;20191;-78
2021/06/15 02:43:51;;;;;;;1999.90;999.90;;;16.60;99.90;;;;;;5077703;28;20188;-78
2021/06/15 02:46:17;;;;;;;1999.90;999.90;;;16.60;99.90;;;;;;5078153;28;20200;-79
2021/06/15 02:48:50;;;;;;;1999.90;999.90;;;16.50;99.90;;;;;;5059849;28;20242;-79
2021/06/15 02:51:16;;;;;;;1999.90;999.90;;;16.50;99.90;;;;;;5077791;28;20212;-78
2021/06/15 02:53:52;;;;;;;1999.90;999.90;;;16.40;99.90;;;;;;5077680;28;20216;-78
2021/06/15 02:56:21;;;;;;;1999.90;999.90;;;16.40;99.90;;;;;;5048791;28;20219;-78
2021/06/15 02:58:47;;;;;;;1999.90;999.90;;;16.40;99.90;;;;;;5058988;28;20590;-79
2021/06/15 03:01:13;;;;;;;1999.90;999.90;;;16.40;99.90;;;;;;5059649;28;20268;-78
2021/06/15 03:03:39;;;;;;;1999.90;999.90;;;16.40;99.90;;;;;;5076986;28;20169;-78
2021/06/15 03:06:06;;;;;;;1999.90;999.90;;;16.40;99.90;;;;;;5069209;28;20230;-78
2021/06/15 03:08:34;;;;;;;1999.90;999.90;;;16.40;99.90;;;;;;5051513;28;20731;-77
2021/06/15 03:11:02;;;;;;;1999.90;999.90;;;16.40;99.90;;;;;;5060507;28;20271;-78
2021/06/15 03:13:48;;;;;;;1999.90;999.90;;;16.40;99.90;;;;;;5060407;28;20307;-78
2021/06/15 03:16:17;;;;;;;1999.90;999.90;;;16.40;99.90;;;;;;5073984;28;20193;-79
2021/06/15 03:19:07;;;;;;;1999.90;999.90;;;16.20;99.90;;;;;;5072072;28;20184;-78
2021/06/15 03:21:44;;;;;;;1999.90;999.90;;;16.10;99.90;;;;;;5080272;28;20181;-78
2021/06/15 03:24:19;;;;;;;1999.90;999.90;;;16.00;99.90;;;;;;5067517;28;20180;-78
2021/06/15 03:26:50;;;;;;;1999.90;999.90;;;16.00;99.90;;;;;;5073840;28;20204;-78
2021/06/15 03:29:21;;;;;;;1999.90;999.90;;;16.00;99.90;;;;;;5069530;28;20272;-78
2021/06/15 03:31:51;;;;;;;1999.90;999.90;;;16.10;99.90;;;;;;5061205;28;20177;-78
2021/06/15 03:34:22;;;;;;;1999.90;999.90;;;16.10;99.90;;;;;;5081957;28;20251;-78
2021/06/15 03:36:49;;;;;;;1999.90;999.90;;;15.90;99.90;;;;;;5060291;28;20206;-78
2021/06/15 03:39:17;;;;;;;1999.90;999.90;;;15.90;99.90;;;;;;5049824;28;20861;-78
2021/06/15 03:41:43;;;;;;;1999.90;999.90;;;16.00;99.90;;;;;;5061981;28;20211;-77
2021/06/15 03:44:09;;;;;;;1999.90;999.90;;;16.00;99.90;;;;;;5062545;28;20184;-78
2021/06/15 03:46:39;;;;;;;1999.90;999.90;;;16.00;99.90;;;;;;5070321;28;20201;-77
2021/06/15 03:49:09;;;;;;;1999.90;999.90;;;16.00;99.90;;;;;;5077893;28;20231;-78
2021/06/15 03:51:38;;;;;;;1999.90;999.90;;;16.00;99.90;;;;;;5080891;28;20169;-78
2021/06/15 03:54:10;;;;;;;1999.90;999.90;;;15.90;99.90;;;;;;5081980;28;20199;-78
2021/06/15 03:56:44;;;;;;;1999.90;999.90;;;16.00;99.90;;;;;;5081888;28;20200;-78
2021/06/15 03:59:14;;;;;;;1999.90;999.90;;;15.90;99.90;;;;;;5081750;28;20185;-78
2021/06/15 04:01:42;;;;;;;1999.90;999.90;;;15.90;99.90;;;;;;5050016;28;20180;-78
2021/06/15 04:04:10;;;;;;;1999.90;999.90;;;15.90;99.90;;;;;;5072918;28;20655;-78
2021/06/15 04:06:40;;;;;;;1999.90;999.90;;;15.80;99.90;;;;;;5067492;28;20197;-78
2021/06/15 04:09:07;;;;;;;1999.90;999.90;;;15.90;99.90;;;;;;5062430;28;20177;-78
2021/06/15 04:11:35;;;;;;;1999.90;999.90;;;15.90;99.90;;;;;;5080082;28;20269;-78
2021/06/15 04:14:03;;;;;;;1999.90;999.90;;;15.90;99.90;;;;;;5081147;28;20176;-78
2021/06/15 04:16:29;;;;;;;1999.90;999.90;;;16.00;99.90;;;;;;5080558;28;20345;-78
2021/06/15 04:19:00;;;;;;;1999.90;999.90;;;16.00;99.90;;;;;;5081504;28;20173;-78
2021/06/15 04:21:26;;;;;;;1999.90;999.90;;;16.00;99.90;;;;;;5080990;28;20165;-78
2021/06/15 04:24:02;;;;;;;1999.90;999.90;;;16.00;99.90;;;;;;5077117;28;20629;-78
2021/06/15 04:26:31;;;;;;;1999.90;999.90;;;16.10;99.90;;;;;;5076001;28;20272;-78
2021/06/15 04:28:57;;;;;;;1999.90;999.90;;;16.10;99.90;;;;;;5064002;28;20181;-78
2021/06/15 04:31:24;;;;;;;1999.90;999.90;;;16.10;99.90;;;;;;5053923;28;20244;-78
2021/06/15 04:33:51;;;;;;;1999.90;999.90;;;16.20;99.90;;;;;;5052312;28;20181;-78
2021/06/15 04:36:19;;;;;;;1999.90;999.90;;;16.30;99.90;;;;;;5070983;28;21728;-78
2021/06/15 04:38:54;;;;;;;1999.90;999.90;;;16.30;99.90;;;;;;5079821;28;20176;-78
2021/06/15 04:41:25;;;;;;;1999.90;999.90;;;16.40;99.90;;;;;;5071649;28;20199;-81
2021/06/15 04:44:11;;;;;;;1999.90;999.90;;;16.60;99.90;;;;;;5074000;28;20227;-81
2021/06/15 04:46:43;;;;;;;1999.90;999.90;;;16.70;99.90;;;;;;5074482;28;20287;-81
2021/06/15 04:49:44;;;;;;;1999.90;999.90;;;16.90;99.90;;;;;;5075949;28;20180;-80
2021/06/15 04:52:13;;;;;;;1999.90;999.90;;;17.10;99.90;;;;;;5062346;28;20315;-81
2021/06/15 04:54:42;;;;;;;1999.90;999.90;;;17.20;99.90;;;;;;5076288;28;20310;-80
2021/06/15 04:57:13;;;;;;;1999.90;999.90;;;17.40;99.90;;;;;;5058331;28;20211;-81
2021/06/15 04:59:41;;;;;;;1999.90;999.90;;;17.50;99.90;;;;;;5075996;28;20174;-81
2021/06/15 05:02:07;;;;;;;1999.90;999.90;;;17.60;99.90;;;;;;5056860;28;20193;-81
2021/06/15 05:04:35;;;;;;;1999.90;999.90;;;17.70;99.90;;;;;;5057861;28;20180;-81
2021/06/15 05:07:02;;;;;;;1999.90;999.90;;;17.80;99.90;;;;;;5075760;28;20588;-80
2021/06/15 05:09:29;;;;;;;1999.90;999.90;;;17.90;99.90;;;;;;5057695;28;20290;-81
2021/06/15 05:11:56;;;;;;;1999.90;999.90;;;18.00;99.90;;;;;;5057991;28;20184;-81
2021/06/15 05:14:34;;;;;;;1999.90;999.90;;;18.00;99.90;;;;;;5075569;28;20226;-80
2021/06/15 05:17:01;;;;;;;1999.90;999.90;;;18.10;99.90;;;;;;5057393;28;20296;-81
2021/06/15 05:19:27;;;;;;;1999.90;999.90;;;18.20;99.90;;;;;;5076269;28;20684;-81
2021/06/15 05:22:01;;;;;;;1999.90;999.90;;;18.30;99.90;;;;;;5057870;28;20268;-81
2021/06/15 05:24:46;;;;;;;1999.90;999.90;;;18.50;99.90;;;;;;5059360;28;20197;-80
2021/06/15 05:27:12;;;;;;;1999.90;999.90;;;18.60;99.90;;;;;;5076609;28;20231;-80
2021/06/15 05:29:38;;;;;;;1999.90;999.90;;;18.60;99.90;;;;;;5060778;28;20180;-79
2021/06/15 05:32:06;;;;;;;1999.90;999.90;;;18.70;99.90;;;;;;5059798;28;20177;-82
2021/06/15 05:34:33;;;;;;;1999.90;999.90;;;18.80;99.90;;;;;;5076621;28;20177;-81
2021/06/15 05:36:59;;;;;;;1999.90;999.90;;;18.90;99.90;;;;;;5075004;28;20209;-81
2021/06/15 05:39:24;;;;;;;1999.90;999.90;;;18.90;99.90;;;;;;5075941;28;20302;-82
2021/06/15 05:41:50;;;;;;;1999.90;999.90;;;19.00;99.90;;;;;;5075835;28;20177;-82
2021/06/15 05:44:16;;;;;;;1999.90;999.90;;;19.10;99.90;;;;;;5056905;28;20180;-81
2021/06/15 05:46:41;;;;;;;1999.90;999.90;;;19.10;99.90;;;;;;5076066;28;20204;-82
2021/06/15 05:49:07;;;;;;;1999.90;999.90;;;19.30;99.90;;;;;;5057897;28;20618;-82
2021/06/15 05:51:33;;;;;;;1999.90;999.90;;;19.30;99.90;;;;;;5057432;28;20647;-81
2021/06/15 05:54:02;;;;;;;1999.90;999.90;;;19.20;99.90;;;;;;5057153;28;20264;-81
2021/06/15 05:56:29;;;;;;;1999.90;999.90;;;19.30;99.90;;;;;;5075081;28;20582;-81
2021/06/15 05:58:54;;;;;;;1999.90;999.90;;;19.50;99.90;;;;;;5075266;28;20188;-83
2021/06/15 06:01:20;;;;;;;1999.90;999.90;;;19.60;99.90;;;;;;5075589;28;20173;-81
2021/06/15 06:03:53;;;;;;;1999.90;999.90;;;19.80;99.90;;;;;;5075319;28;20204;-81
2021/06/15 06:09:03;;;;;;;1999.90;999.90;;;19.90;99.90;;;;;;5120131;22;20281;-82
2021/06/15 06:11:29;;;;;;;1999.90;999.90;;;20.00;99.90;;;;;;5080971;28;20172;-81
2021/06/15 06:13:55;;;;;;;1999.90;999.90;;;20.00;99.90;;;;;;5098189;28;20177;-81
2021/06/15 06:16:20;;;;;;;1999.90;999.90;;;20.00;99.90;;;;;;5099325;28;20304;-82
2021/06/15 06:18:46;;;;;;;1999.90;999.90;;;20.10;99.90;;;;;;5084426;28;20201;-82
2021/06/15 06:21:12;;;;;;;1999.90;999.90;;;20.10;99.90;;;;;;5079158;28;20177;-81
2021/06/15 06:23:38;;;;;;;1999.90;999.90;;;20.20;99.90;;;;;;5077955;28;20203;-83
2021/06/15 06:26:05;;;;;;;1999.90;999.90;;;20.10;99.90;;;;;;5061360;28;20256;-83
2021/06/15 06:28:31;;;;;;;1999.90;999.90;;;20.10;99.90;;;;;;5078924;28;20189;-81
2021/06/15 06:30:56;;;;;;;1999.90;999.90;;;20.20;99.90;;;;;;5064363;28;20180;-81
2021/06/15 06:33:22;;;;;;;1999.90;999.90;;;20.20;99.90;;;;;;5079558;28;20264;-82
2021/06/15 06:35:48;;;;;;;1999.90;999.90;;;20.30;99.90;;;;;;5079600;28;20621;-82
2021/06/15 06:38:13;;;;;;;1999.90;999.90;;;20.40;99.90;;;;;;5080141;28;20220;-82
2021/06/15 06:40:39;;;;;;;1999.90;999.90;;;20.30;99.90;;;;;;5061334;28;20639;-82
2021/06/15 06:43:05;;;;;;;1999.90;999.90;;;20.40;99.90;;;;;;5080055;28;20252;-82
2021/06/15 06:45:30;;;;;;;1999.90;999.90;;;20.50;99.90;;;;;;5061489;28;20609;-82
2021/06/15 06:47:56;;;;;;;1999.90;999.90;;;20.50;99.90;;;;;;5079380;28;20204;-82
2021/06/15 06:50:22;;;;;;;1999.90;999.90;;;20.60;99.90;;;;;;5078739;28;20671;-81
2021/06/15 06:52:47;;;;;;;1999.90;999.90;;;20.70;99.90;;;;;;5079063;28;20192;-82
2021/06/15 06:55:18;;;;;;;1999.90;999.90;;;20.90;99.90;;;;;;5080921;28;20173;-81
2021/06/15 06:57:46;;;;;;;1999.90;999.90;;;20.60;99.90;;;;;;5065402;28;20572;-81
2021/06/15 07:00:12;;;;;;;1999.90;999.90;;;20.60;99.90;;;;;;5083526;28;20174;-82
2021/06/15 07:02:38;;;;;;;1999.90;999.90;;;20.80;99.90;;;;;;5079605;28;20177;-81
2021/06/15 07:05:04;;;;;;;1999.90;999.90;;;21.00;99.90;;;;;;5063553;28;20181;-82
2021/06/15 07:07:29;;;;;;;1999.90;999.90;;;20.90;99.90;;;;;;5063624;28;20214;-81
2021/06/15 07:09:55;;;;;;;1999.90;999.90;;;21.00;99.90;;;;;;5063564;28;20185;-82
2021/06/15 07:12:21;;;;;;;1999.90;999.90;;;21.10;99.90;;;;;;5063162;28;20185;-82
2021/06/15 07:14:46;;;;;;;1999.90;999.90;;;21.20;99.90;;;;;;5062639;28;20174;-82
2021/06/15 07:17:12;;;;;;;1999.90;999.90;;;21.20;99.90;;;;;;5045284;28;20213;-83
2021/06/15 07:19:38;;;;;;;1999.90;999.90;;;21.40;99.90;;;;;;5044919;28;20162;-82
2021/06/15 07:22:05;;;;;;;1999.90;999.90;;;21.50;99.90;;;;;;5044839;28;20173;-82
2021/06/15 07:24:31;;;;;;;1999.90;999.90;;;21.60;99.90;;;;;;5055108;28;20309;-81
2021/06/15 07:26:56;;;;;;;1999.90;999.90;;;21.70;99.90;;;;;;5081849;28;20267;-82
2021/06/15 07:29:22;;;;;;;1999.90;999.90;;;21.80;99.90;;;;;;5064973;28;20231;-82
2021/06/15 07:31:48;;;;;;;1999.90;999.90;;;22.00;99.90;;;;;;5064605;28;20185;-81
2021/06/15 07:34:14;;;;;;;1999.90;999.90;;;22.20;99.90;;;;;;5081764;28;20192;-82
2021/06/15 07:36:39;;;;;;;1999.90;999.90;;;22.20;99.90;;;;;;5082994;28;20197;-81
2021/06/15 07:39:05;;;;;;;1999.90;999.90;;;22.30;99.90;;;;;;5045005;28;20198;-82
2021/06/15 07:41:31;;;;;;;1999.90;999.90;;;22.40;99.90;;;;;;5044540;28;20178;-82
2021/06/15 07:43:56;;;;;;;1999.90;999.90;;;22.30;99.90;;;;;;5044438;28;20181;-82
2021/06/15 07:46:22;;;;;;;1999.90;999.90;;;22.40;99.90;;;;;;5061999;28;20189;-82
2021/06/15 07:48:48;;;;;;;1999.90;999.90;;;22.50;99.90;;;;;;5062578;28;20205;-82
2021/06/15 07:51:13;;;;;;;1999.90;999.90;;;22.70;99.90;;;;;;5044051;28;20264;-82
2021/06/15 07:53:39;;;;;;;1999.90;999.90;;;22.80;99.90;;;;;;5044259;28;20182;-82
2021/06/15 07:56:05;;;;;;;1999.90;999.90;;;22.90;99.90;;;;;;5043718;28;20174;-82
2021/06/15 07:58:31;;;;;;;1999.90;999.90;;;23.00;99.90;;;;;;5045323;28;20189;-81
2021/06/15 08:00:57;;;;;;;1999.90;999.90;;;23.00;99.90;;;;;;5044778;28;20166;-83
2021/06/15 08:03:24;;;;;;;1999.90;999.90;;;23.10;99.90;;;;;;5061825;28;20185;-82
2021/06/15 08:05:49;;;;;;;1999.90;999.90;;;23.20;99.90;;;;;;5060035;28;20174;-82
2021/06/15 08:08:15;;;;;;;1999.90;999.90;;;23.40;99.90;;;;;;5041310;28;20709;-82
2021/06/15 08:10:41;;;;;;;1999.90;999.90;;;23.50;99.90;;;;;;5060390;28;20240;-82
2021/06/15 08:13:06;;;;;;;1999.90;999.90;;;23.60;99.90;;;;;;5048421;28;20670;-82
2021/06/15 08:15:32;;;;;;;1999.90;999.90;;;23.70;99.90;;;;;;5080225;28;20180;-82
2021/06/15 08:17:57;;;;;;;1999.90;999.90;;;23.90;99.90;;;;;;5079589;28;20227;-82
2021/06/15 08:20:23;;;;;;;1999.90;999.90;;;24.00;99.90;;;;;;5062239;28;20192;-82
2021/06/15 08:22:50;;;;;;;1999.90;999.90;;;24.10;99.90;;;;;;5061589;28;20178;-82
2021/06/15 08:25:15;;;;;;;1999.90;999.90;;;24.10;99.90;;;;;;5062121;28;20545;-81
2021/06/15 08:27:41;;;;;;;1999.90;999.90;;;24.20;99.90;;;;;;5061635;28;20197;-82
2021/06/15 08:30:08;;;;;;;1999.90;999.90;;;24.30;99.90;;;;;;5080041;28;20590;-81
2021/06/15 08:32:33;;;;;;;1999.90;999.90;;;24.50;99.90;;;;;;5062080;28;20211;-82
2021/06/15 08:34:59;;;;;;;1999.90;999.90;;;24.60;99.90;;;;;;5079612;28;20177;-81
2021/06/15 08:37:25;;;;;;;1999.90;999.90;;;24.70;99.90;;;;;;5080093;28;20231;-82
2021/06/15 08:39:50;;;;;;;1999.90;999.90;;;24.90;99.90;;;;;;5079902;28;20196;-82
2021/06/15 08:42:16;;;;;;;1999.90;999.90;;;24.90;99.90;;;;;;5080731;28;20172;-81
2021/06/15 08:44:45;;;;;;;1999.90;999.90;;;25.00;99.90;;;;;;5062254;28;20177;-82
2021/06/15 08:47:16;;;;;;;1999.90;999.90;;;25.10;99.90;;;;;;5050530;28;20545;-82
2021/06/15 08:49:45;;;;;;;1999.90;999.90;;;25.20;99.90;;;;;;5079501;28;20181;-82
2021/06/15 08:52:11;;;;;;;1999.90;999.90;;;25.20;99.90;;;;;;5074861;28;20253;-81
2021/06/15 08:54:38;;;;;;;1999.90;999.90;;;25.30;99.90;;;;;;5071002;28;20663;-82
2021/06/15 08:57:04;;;;;;;1999.90;999.90;;;25.40;99.90;;;;;;5079850;28;20204;-82
2021/06/15 08:59:30;;;;;;;1999.90;999.90;;;25.50;99.90;;;;;;5058871;28;20272;-82
2021/06/15 09:01:58;;;;;;;1999.90;999.90;;;25.40;99.90;;;;;;5059325;28;20209;-82
2021/06/15 09:04:24;;;;;;;1999.90;999.90;;;25.40;99.90;;;;;;5060505;28;20587;-82
2021/06/15 09:06:50;;;;;;;1999.90;999.90;;;25.40;99.90;;;;;;5079506;28;20189;-82
2021/06/15 09:09:17;;;;;;;1999.90;999.90;;;25.40;99.90;;;;;;5078521;28;20213;-82
2021/06/15 09:12:13;;;;;;;1999.90;999.90;;;25.50;99.90;;;;;;5059646;28;20190;-82
2021/06/15 09:14:45;;;;;;;1999.90;999.90;;;25.70;99.90;;;;;;5050304;28;20204;-82
2021/06/15 09:17:31;;;;;;;1999.90;999.90;;;25.80;99.90;;;;;;5058850;28;20198;-81
2021/06/15 09:20:11;;;;;;;1999.90;999.90;;;25.90;99.90;;;;;;5051020;28;20247;-82
2021/06/15 09:22:38;;;;;;;1999.90;999.90;;;26.00;99.90;;;;;;5041474;28;20251;-82
2021/06/15 09:25:07;;;;;;;1999.90;999.90;;;26.20;99.90;;;;;;5058782;28;20177;-82
2021/06/15 09:27:35;;;;;;;1999.90;999.90;;;26.40;99.90;;;;;;5041213;28;20607;-82
2021/06/15 09:30:04;;;;;;;1999.90;999.90;;;26.30;99.90;;;;;;5058351;28;20516;-82
2021/06/15 09:32:36;;;;;;;1999.90;999.90;;;26.30;99.90;;;;;;5041047;28;20636;-82
2021/06/15 09:35:16;;;;;;;1999.90;999.90;;;26.40;99.90;;;;;;5059286;28;20177;-82
2021/06/15 09:37:49;;;;;;;1999.90;999.90;;;26.50;99.90;;;;;;5062391;28;20214;-82
2021/06/15 09:40:18;;;;;;;1999.90;999.90;;;26.60;99.90;;;;;;5060794;28;20166;-82
2021/06/15 09:43:01;;;;;;;1999.90;999.90;;;26.70;99.90;;;;;;5059992;28;20228;-82
2021/06/15 09:45:33;;;;;;;1999.90;999.90;;;26.80;99.80;;;;;;5041911;28;20165;-82
2021/06/15 09:48:29;;;;;;;1999.90;999.90;;;26.90;99.90;;;;;;5041820;28;20220;-82
2021/06/15 09:51:03;;;;;;;1999.90;999.90;;;27.10;99.90;;;;;;5041487;28;20189;-82
2021/06/15 09:53:34;;;;;;;1999.90;999.90;;;27.20;99.00;;;;;;5059820;28;20207;-82
2021/06/15 09:56:06;;;;;;;1999.90;999.90;;;27.20;99.50;;;;;;5060280;28;20233;-82
2021/06/15 09:58:48;;;;;;;1999.90;999.90;;;27.30;99.40;;;;;;5059639;28;20198;-82
2021/06/15 10:01:28;;;;;;;1999.90;999.90;;;27.10;99.60;;;;;;5060170;28;20170;-82
2021/06/15 10:04:23;;;;;;;1999.90;999.90;;;27.30;99.90;;;;;;5042306;28;20178;-82
2021/06/15 10:06:51;;;;;;;1999.90;999.90;;;27.50;99.90;;;;;;5033230;28;20216;-83
2021/06/15 10:09:26;;;;;;;1999.90;999.90;;;27.50;99.90;;;;;;5042084;28;20304;-82
2021/06/15 10:11:53;;;;;;;1999.90;999.90;;;27.70;99.90;;;;;;5042003;28;20547;-82
2021/06/15 10:14:23;;;;;;;1999.90;999.90;;;27.60;98.70;;;;;;5041375;28;20177;-82
2021/06/15 10:16:50;;;;;;;1999.90;999.90;;;27.60;99.00;;;;;;5059622;28;20224;-82
2021/06/15 10:19:16;;;;;;;1999.90;999.90;;;27.80;99.30;;;;;;5041932;28;20201;-82
2021/06/15 10:21:42;;;;;;;1999.90;999.90;;;27.90;98.60;;;;;;5041720;28;20181;-83
2021/06/15 10:24:08;;;;;;;1999.90;999.90;;;28.10;99.30;;;;;;5059642;28;20229;-82
2021/06/15 10:26:34;;;;;;;1999.90;999.90;;;28.10;99.90;;;;;;5059464;28;20177;-82
2021/06/15 10:29:01;;;;;;;1999.90;999.90;;;28.00;99.10;;;;;;5041636;28;20225;-82
2021/06/15 10:31:32;;;;;;;1999.90;999.90;;;28.20;99.40;;;;;;5058936;28;20264;-82
2021/06/15 10:33:59;;;;;;;1999.90;999.90;;;28.20;99.40;;;;;;5059344;28;20182;-82
2021/06/15 10:36:46;;;;;;;1999.90;999.90;;;28.30;98.80;;;;;;5059876;28;20206;-82
2021/06/15 10:39:36;;;;;;;1999.90;999.90;;;28.30;97.80;;;;;;5059998;28;20340;-83
2021/06/15 10:42:16;;;;;;;1999.90;999.90;;;28.30;99.90;;;;;;5054926;28;20276;-83
2021/06/15 10:45:23;;;;;;;1999.90;999.90;;;28.50;99.90;;;;;;5079707;28;20181;-83
2021/06/15 10:48:06;;;;;;;1999.90;999.90;;;28.50;98.70;;;;;;5079610;28;20242;-82
2021/06/15 10:50:39;;;;;;;1999.90;999.90;;;28.50;97.80;;;;;;5061551;28;20180;-82
2021/06/15 10:53:09;;;;;;;1999.90;999.90;;;28.50;98.10;;;;;;5079328;28;20180;-83
2021/06/15 10:55:51;;;;;;;1999.90;999.90;;;28.50;97.60;;;;;;5061394;28;20795;-82
2021/06/15 10:58:37;;;;;;;1999.90;999.90;;;28.50;97.30;;;;;;5078478;28;20204;-82
2021/06/15 11:01:23;;;;;;;1999.90;999.90;;;28.50;98.20;;;;;;5078844;28;20173;-82
2021/06/15 11:04:08;;;;;;;1999.90;999.90;;;28.60;98.40;;;;;;5061097;28;20173;-82
2021/06/15 11:06:34;;;;;;;1999.90;999.90;;;28.50;98.10;;;;;;5079021;28;20166;-82
2021/06/15 11:09:05;;;;;;;1999.90;999.90;;;28.50;98.60;;;;;;5061396;28;20278;-82
2021/06/15 11:11:32;;;;;;;1999.90;999.90;;;28.80;99.90;;;;;;5076383;28;20173;-82
2021/06/15 11:14:07;;;;;;;1999.90;999.90;;;29.00;98.30;;;;;;5065616;28;20182;-82
2021/06/15 11:16:35;;;;;;;1999.90;999.90;;;28.90;98.00;;;;;;5058504;28;20235;-82
2021/06/15 11:19:13;;;;;;;1999.90;999.90;;;29.00;99.80;;;;;;5057426;28;20194;-82
2021/06/15 11:21:47;;;;;;;1999.90;999.90;;;29.20;97.70;;;;;;5057131;28;20170;-82
2021/06/15 11:24:31;;;;;;;1999.90;999.90;;;29.30;98.40;;;;;;5057881;28;20185;-82
2021/06/15 11:27:00;;;;;;;1999.90;999.90;;;29.40;98.20;;;;;;5039784;28;20620;-82
2021/06/15 11:29:37;;;;;;;1999.90;999.90;;;29.40;99.90;;;;;;5039585;28;20208;-82
2021/06/15 11:32:18;;;;;;;1999.90;999.90;;;29.30;96.70;;;;;;5057590;28;20169;-81
2021/06/15 11:34:56;;;;;;;1999.90;999.90;;;29.30;98.30;;;;;;5057092;28;20178;-82
2021/06/15 11:37:44;;;;;;;1999.90;999.90;;;29.50;97.60;;;;;;5057195;28;20201;-82
2021/06/15 11:40:28;;;;;;;1999.90;999.90;;;29.60;97.20;;;;;;5058294;28;20170;-82
2021/06/15 11:42:55;;;;;;;1999.90;999.90;;;29.50;97.90;;;;;;5072387;28;20696;-82
2021/06/15 11:45:33;;;;;;;1999.90;999.90;;;29.50;97.30;;;;;;5063690;28;20584;-82
2021/06/15 11:48:31;;;;;;;1999.90;999.90;;;29.70;98.10;;;;;;5080957;28;20197;-82
2021/06/15 11:50:59;;;;;;;1999.90;999.90;;;30.00;98.50;;;;;;5080886;28;20722;-82
2021/06/15 11:53:25;;;;;;;1999.90;999.90;;;30.10;99.50;;;;;;5081701;28;20185;-82
2021/06/15 11:55:59;;;;;;;1999.90;999.90;;;30.10;96.90;;;;;;5081038;28;20230;-82
2021/06/15 11:58:25;;;;;;;1999.90;999.90;;;29.90;96.60;;;;;;5081365;28;20577;-82
2021/06/15 12:01:00;;;;;;;1999.90;999.90;;;29.60;96.60;;;;;;5081288;28;20177;-83
2021/06/15 12:03:27;;;;;;;1999.90;999.90;;;29.50;96.80;;;;;;5080937;28;20177;-82
2021/06/15 12:05:55;;;;;;;1999.90;999.90;;;29.40;96.50;;;;;;5063775;28;20181;-81
2021/06/15 12:08:22;;;;;;;1999.90;999.90;;;29.30;96.80;;;;;;5098002;22;20692;-79
2021/06/15 12:10:50;;;;;;;1999.90;999.90;;;29.20;97.80;;;;;;5056430;28;20177;-81
2021/06/15 12:13:18;;;;;;;1999.90;999.90;;;29.40;99.90;;;;;;5056549;28;20162;-80
2021/06/15 12:15:54;;;;;;;1999.90;999.90;;;29.60;97.10;;;;;;5038936;28;20170;-79